createdAt,value
2022-09-12T00:01:29.740Z,97995.03
2022-09-12T00:04:13.038Z,98003.78
2022-09-12T00:07:01.629Z,97999.53
2022-09-12T00:09:43.937Z,98006.75
2022-09-12T00:12:32.715Z,98006.75
2022-09-12T00:15:21.700Z,98000.31
2022-09-12T00:18:04.049Z,98000.69
2022-09-12T00:20:54.710Z,98003.56
2022-09-12T00:23:43.770Z,98004.84
2022-09-12T00:26:31.983Z,98001.63
2022-09-12T00:29:14.705Z,98001.25
2022-09-12T00:32:03.073Z,98010.22
2022-09-12T00:34:45.617Z,98018.38
2022-09-12T00:37:35.043Z,98018.16
2022-09-12T00:40:17.733Z,98014.69
2022-09-12T00:43:07.206Z,98015.75
2022-09-12T00:45:52.772Z,98015.59
2022-09-12T00:48:57.771Z,98000.66
2022-09-12T00:51:50.003Z,98003.41
2022-09-12T00:54:38.707Z,98005.00
2022-09-12T00:57:31.797Z,98011.34
2022-09-12T01:00:21.014Z,98015.75
2022-09-12T01:03:16.773Z,98019.50
2022-09-12T01:06:16.051Z,98018.22
2022-09-12T01:09:06.661Z,98027.41
2022-09-12T01:11:50.171Z,98021.19
2022-09-12T01:14:39.739Z,98029.72
2022-09-12T01:17:23.075Z,98027.97
2022-09-12T01:20:26.806Z,98026.50
2022-09-12T01:23:43.769Z,98028.34
2022-09-12T01:26:53.347Z,98044.41
2022-09-12T01:30:01.780Z,98045.31
2022-09-12T01:33:11.044Z,98051.28
2022-09-12T01:36:31.798Z,98047.00
2022-09-12T01:39:28.985Z,98050.25
2022-09-12T01:42:39.725Z,98044.78
2022-09-12T01:45:59.822Z,98049.97
2022-09-12T01:49:00.620Z,98062.50
2022-09-12T01:52:08.729Z,98074.50
2022-09-12T01:55:09.868Z,98070.16
2022-09-12T01:58:29.715Z,98069.38
2022-09-12T02:01:24.934Z,98059.75
2022-09-12T02:04:52.685Z,98064.91
2022-09-12T02:08:08.793Z,98066.63
2022-09-12T02:11:08.711Z,98051.94
2022-09-12T02:14:14.710Z,98061.56
2022-09-12T02:17:29.747Z,98060.78
2022-09-12T02:20:46.892Z,98053.31
2022-09-12T02:23:39.864Z,98064.81
2022-09-12T02:26:43.667Z,98057.25
2022-09-12T02:29:34.063Z,98061.03
2022-09-12T02:32:34.370Z,98061.72
2022-09-12T02:35:49.714Z,98058.44
2022-09-12T02:38:45.839Z,98064.88
2022-09-12T02:41:28.554Z,98059.59
2022-09-12T02:44:18.678Z,98064.81
2022-09-12T02:47:28.079Z,98060.88
2022-09-12T02:50:24.717Z,98051.03
2022-09-12T02:53:22.718Z,98053.94
2022-09-12T02:56:23.885Z,98058.13
2022-09-12T02:59:17.667Z,98052.81
2022-09-12T03:02:24.131Z,98046.53
2022-09-12T03:05:22.748Z,98042.09
2022-09-12T03:08:23.188Z,98047.53
2022-09-12T03:11:13.682Z,98054.66
2022-09-12T03:14:46.043Z,98063.94
2022-09-12T03:18:00.698Z,98062.84
2022-09-12T03:21:29.024Z,98073.97
2022-09-12T03:24:52.740Z,98092.84
2022-09-12T03:27:49.057Z,98083.44
2022-09-12T03:30:37.780Z,98083.06
2022-09-12T03:33:25.053Z,98089.16
2022-09-12T03:36:13.752Z,98085.91
2022-09-12T03:38:56.058Z,98091.41
2022-09-12T03:41:48.621Z,98092.16
2022-09-12T03:44:32.075Z,98097.72
2022-09-12T03:47:20.749Z,98092.84
2022-09-12T03:50:03.138Z,98097.38
2022-09-12T03:52:51.777Z,98088.69
2022-09-12T03:55:48.592Z,98089.03
2022-09-12T03:58:42.933Z,98095.84
2022-09-12T04:01:27.137Z,98084.56
2022-09-12T04:04:14.667Z,98086.72
2022-09-12T04:06:57.840Z,98090.50
2022-09-12T04:09:46.757Z,98089.75
2022-09-12T04:12:35.711Z,98087.34
2022-09-12T04:15:24.746Z,98091.34
2022-09-12T04:18:08.058Z,98101.59
2022-09-12T04:20:56.745Z,98091.81
2022-09-12T04:23:41.212Z,98095.16
2022-09-12T04:26:25.768Z,98091.84
2022-09-12T04:29:08.940Z,98088.78
2022-09-12T04:32:12.730Z,98089.97
2022-09-12T04:34:56.094Z,98092.44
2022-09-12T04:37:44.787Z,98084.63
2022-09-12T04:40:27.076Z,98085.38
2022-09-12T04:43:24.742Z,98092.56
2022-09-12T04:46:12.445Z,98094.94
2022-09-12T04:49:03.751Z,98092.75
2022-09-12T04:51:54.696Z,98081.22
2022-09-12T04:54:43.065Z,98079.88
2022-09-12T04:57:25.662Z,98081.00
2022-09-12T05:00:08.768Z,98077.16
2022-09-12T05:02:58.756Z,98076.19
2022-09-12T05:05:50.547Z,98076.38
2022-09-12T05:08:53.763Z,98075.41
2022-09-12T05:12:09.181Z,98069.63
2022-09-12T05:15:20.791Z,98070.31
2022-09-12T05:18:23.227Z,98071.16
2022-09-12T05:21:35.771Z,98066.78
2022-09-12T05:24:40.841Z,98053.88
2022-09-12T05:27:51.788Z,98049.66
2022-09-12T05:31:37.528Z,98040.09
2022-09-12T05:34:41.918Z,98036.16
2022-09-12T05:37:51.816Z,98029.75
2022-09-12T05:41:00.772Z,98025.69
2022-09-12T05:44:05.935Z,98025.25
2022-09-12T05:47:14.786Z,98020.44
2022-09-12T05:50:18.393Z,98014.94
2022-09-12T05:53:35.788Z,98023.25
2022-09-12T05:56:58.686Z,98015.72
2022-09-12T06:00:08.593Z,98016.13
2022-09-12T06:03:11.081Z,98000.63
2022-09-12T06:06:22.782Z,98002.66
2022-09-12T06:09:26.892Z,97998.56
2022-09-12T06:12:37.705Z,97997.31
2022-09-12T06:15:42.390Z,97996.63
2022-09-12T06:19:00.158Z,97991.66
2022-09-12T06:22:06.301Z,97987.69
2022-09-12T06:25:16.796Z,97988.22
2022-09-12T06:28:19.286Z,97995.44
2022-09-12T06:31:36.398Z,97984.59
2022-09-12T06:34:41.592Z,97981.78
2022-09-12T06:37:53.746Z,97987.78
2022-09-12T06:41:03.717Z,97977.38
2022-09-12T06:44:15.757Z,97977.91
2022-09-12T06:47:29.667Z,97976.50
2022-09-12T06:50:38.714Z,97972.19
2022-09-12T06:53:48.806Z,97967.34
2022-09-12T06:56:57.112Z,97972.19
2022-09-12T06:59:59.696Z,97967.84
2022-09-12T07:03:02.034Z,97963.81
2022-09-12T07:06:11.510Z,97964.16
2022-09-12T07:09:24.617Z,97962.13
2022-09-12T07:12:34.677Z,97954.78
2022-09-12T07:15:38.449Z,97954.69
2022-09-12T07:18:49.769Z,97955.81
2022-09-12T07:21:58.015Z,97951.34
2022-09-12T07:25:07.731Z,97947.91
2022-09-12T07:28:11.226Z,97938.66
2022-09-12T07:31:25.828Z,97939.50
2022-09-12T07:34:37.539Z,97926.47
2022-09-12T07:37:40.151Z,97931.53
2022-09-12T07:40:50.784Z,97922.59
2022-09-12T07:43:54.297Z,97922.66
2022-09-12T07:47:04.693Z,97916.63
2022-09-12T07:50:09.195Z,97912.25
2022-09-12T07:53:20.713Z,97904.31
2022-09-12T07:56:39.450Z,97904.44
2022-09-12T07:59:53.527Z,97900.44
2022-09-12T08:03:01.531Z,97897.72
2022-09-12T08:06:19.640Z,97895.53
2022-09-12T08:09:23.067Z,97898.75
2022-09-12T08:12:32.623Z,97884.84
2022-09-12T08:15:36.061Z,97885.94
2022-09-12T08:18:46.723Z,97878.88
2022-09-12T08:21:56.796Z,97874.91
2022-09-12T08:24:59.926Z,97871.53
2022-09-12T08:28:09.798Z,97876.09
2022-09-12T08:31:18.096Z,97868.94
2022-09-12T08:34:26.695Z,97864.06
2022-09-12T08:37:32.861Z,97861.75
2022-09-12T08:40:43.130Z,97857.06
2022-09-12T08:44:16.879Z,97853.41
2022-09-12T08:47:31.842Z,97859.03
2022-09-12T08:50:35.123Z,97852.56
2022-09-12T08:53:46.750Z,97851.03
2022-09-12T08:56:58.797Z,97842.72
2022-09-12T09:00:03.136Z,97843.88
2022-09-12T09:03:15.756Z,97840.72
2022-09-12T09:07:02.338Z,97840.75
2022-09-12T09:10:36.680Z,97834.28
2022-09-12T09:14:56.726Z,97835.88
2022-09-12T09:18:25.851Z,97830.41
2022-09-12T09:22:03.648Z,97830.72
2022-09-12T09:25:25.712Z,97825.59
2022-09-12T09:28:38.773Z,97824.81
2022-09-12T09:31:54.431Z,97824.88
2022-09-12T09:35:06.400Z,97822.88
2022-09-12T09:38:27.191Z,97808.06
2022-09-12T09:41:59.682Z,97801.28
2022-09-12T09:45:08.105Z,97800.88
2022-09-12T09:48:35.959Z,97790.47
2022-09-12T09:51:47.248Z,97779.84
2022-09-12T09:55:04.697Z,97783.34
2022-09-12T09:58:22.668Z,97775.41
2022-09-12T10:01:35.738Z,97769.38
2022-09-12T10:04:50.800Z,97769.00
2022-09-12T10:08:02.767Z,97760.22
2022-09-12T10:11:10.228Z,97769.03
2022-09-12T10:14:48.621Z,97752.63
2022-09-12T10:18:03.685Z,97750.69
2022-09-12T10:21:25.698Z,97745.03
2022-09-12T10:24:43.163Z,97741.84
2022-09-12T10:27:51.602Z,97737.91
2022-09-12T10:31:03.968Z,97733.19
2022-09-12T10:34:14.437Z,97735.59
2022-09-12T10:37:52.197Z,97728.47
2022-09-12T10:41:12.098Z,97727.66
2022-09-12T10:44:33.744Z,97729.63
2022-09-12T10:47:42.719Z,97722.81
2022-09-12T10:50:58.704Z,97729.56
2022-09-12T10:54:04.212Z,97725.28
2022-09-12T10:57:34.717Z,97718.38
2022-09-12T11:00:59.925Z,97715.69
2022-09-12T11:04:26.296Z,97711.25
2022-09-12T11:07:58.800Z,97708.13
2022-09-12T11:11:44.731Z,97707.34
2022-09-12T11:15:04.534Z,97712.56
2022-09-12T11:18:27.004Z,97707.00
2022-09-12T11:21:42.843Z,97710.97
2022-09-12T11:25:24.048Z,97710.22
2022-09-12T13:42:17.972Z,97704.56
2022-09-12T13:45:57.802Z,97695.97
2022-09-12T13:49:13.099Z,97700.78
2022-09-12T13:52:40.993Z,97703.13
2022-09-12T13:55:56.161Z,97718.94
2022-09-12T13:59:08.999Z,97708.13
2022-09-12T14:02:31.289Z,97716.91
2022-09-12T14:05:43.327Z,97720.94
2022-09-12T14:08:56.271Z,97721.72
2022-09-12T14:12:07.634Z,97724.84
2022-09-12T14:15:43.357Z,97724.00
2022-09-12T14:18:56.122Z,97723.19
2022-09-12T14:21:59.521Z,97725.97
2022-09-12T14:25:11.228Z,97725.41
2022-09-12T14:28:23.394Z,97740.28
2022-09-12T14:31:49.231Z,97747.03
2022-09-12T14:35:13.588Z,97747.25
2022-09-12T14:38:47.930Z,97753.22
2022-09-12T14:42:07.332Z,97756.00
2022-09-12T14:45:40.136Z,97757.78
2022-09-12T14:49:08.737Z,97765.66
2022-09-12T14:52:35.952Z,97772.94
2022-09-12T14:55:49.224Z,97783.97
2022-09-12T14:59:00.775Z,97781.69
2022-09-12T15:02:30.182Z,97777.31
2022-09-12T15:05:42.802Z,97777.66
2022-09-12T15:08:51.636Z,97777.19
2022-09-12T15:11:55.192Z,97775.97
2022-09-12T15:15:21.462Z,97780.78
2022-09-12T15:18:25.922Z,97787.88
2022-09-12T15:21:35.262Z,97798.06
2022-09-12T15:24:48.282Z,97805.56
2022-09-12T15:27:58.747Z,97811.53
2022-09-12T15:31:16.803Z,97813.47
2022-09-12T15:34:21.121Z,97816.56
2022-09-12T15:37:35.410Z,97819.25
2022-09-12T15:41:01.958Z,97820.84
2022-09-12T15:44:13.535Z,97827.53
2022-09-12T15:47:31.084Z,97837.47
2022-09-12T15:50:49.894Z,97840.47
2022-09-12T15:54:08.163Z,97848.59
2022-09-12T15:57:17.172Z,97849.81
2022-09-12T16:00:28.269Z,97854.00
2022-09-12T16:03:33.391Z,97847.59
2022-09-12T16:06:42.170Z,97850.72
2022-09-12T16:09:46.747Z,97849.44
2022-09-12T16:12:55.088Z,97851.50
2022-09-12T16:16:01.297Z,97859.56
2022-09-12T16:19:10.197Z,97862.63
2022-09-12T16:22:21.283Z,97857.81
2022-09-12T16:25:28.138Z,97854.88
2022-09-12T16:28:32.287Z,97850.59
2022-09-12T16:31:39.331Z,97860.06
2022-09-12T16:34:49.195Z,97861.56
2022-09-12T16:37:54.595Z,97867.88
2022-09-12T16:41:04.347Z,97866.38
2022-09-12T16:44:07.828Z,97861.56
2022-09-12T16:47:18.274Z,97869.03
2022-09-12T16:50:21.544Z,97865.41
2022-09-12T16:53:30.349Z,97870.88
2022-09-12T16:56:47.145Z,97870.81
2022-09-12T16:59:57.250Z,97879.13
2022-09-12T17:02:59.589Z,97886.59
2022-09-12T17:06:22.265Z,97891.69
2022-09-12T17:09:28.572Z,97886.59
2022-09-12T17:12:37.203Z,97886.53
2022-09-12T17:15:43.191Z,97884.53
2022-09-12T17:18:54.285Z,97887.31
2022-09-12T17:21:59.847Z,97885.72
2022-09-12T17:25:11.792Z,97894.84
2022-09-12T17:28:15.789Z,97890.44
2022-09-12T17:31:26.309Z,97893.97
2022-09-12T17:34:35.194Z,97887.94
2022-09-12T17:37:44.952Z,97891.16
2022-09-12T17:40:59.876Z,97891.50
2022-09-12T17:44:10.270Z,97895.06
2022-09-12T17:47:21.190Z,97890.97
2022-09-12T17:50:33.456Z,97890.97
2022-09-12T17:53:47.152Z,97892.16
2022-09-12T17:56:58.050Z,97889.25
2022-09-12T18:00:01.246Z,97889.25
2022-09-12T18:03:14.283Z,97888.91
2022-09-12T18:06:18.051Z,97891.72
2022-09-12T18:09:31.109Z,97903.03
2022-09-12T18:12:42.268Z,97900.28
2022-09-12T18:15:44.874Z,97897.88
2022-09-12T18:18:58.162Z,97904.13
2022-09-12T18:22:00.702Z,97901.25
2022-09-12T18:25:09.205Z,97905.47
2022-09-12T18:28:14.104Z,97902.34
2022-09-12T18:31:34.501Z,97902.22
2022-09-12T18:34:36.578Z,97896.69
2022-09-12T18:37:45.231Z,97906.22
2022-09-12T18:40:47.796Z,97907.00
2022-09-12T18:43:57.128Z,97911.59
2022-09-12T18:47:07.154Z,97900.31
2022-09-12T18:50:10.249Z,97906.84
2022-09-12T18:53:03.152Z,97914.06
2022-09-12T18:55:45.549Z,97911.31
2022-09-12T18:58:34.550Z,97912.75
2022-09-12T19:01:21.614Z,97924.13
2022-09-12T19:04:13.654Z,97923.69
2022-09-12T19:06:56.680Z,97932.00
2022-09-12T19:09:45.227Z,97931.25
2022-09-12T19:12:34.088Z,97923.97
2022-09-12T19:15:31.253Z,97919.91
2022-09-12T19:18:19.518Z,97916.69
2022-09-12T19:21:02.271Z,97918.50
2022-09-12T19:23:44.937Z,97928.03
2022-09-12T19:26:35.250Z,97924.81
2022-09-12T19:29:23.504Z,97924.25
2022-09-12T19:32:06.181Z,97921.38
2022-09-12T19:34:55.107Z,97924.81
2022-09-12T19:37:44.147Z,97922.25
2022-09-12T19:40:33.194Z,97925.94
2022-09-12T19:43:16.504Z,97932.66
2022-09-12T19:46:05.138Z,97928.34
2022-09-12T19:48:47.766Z,97928.28
2022-09-12T19:51:37.239Z,97942.09
2022-09-12T19:54:20.520Z,97940.50
2022-09-12T19:57:15.236Z,97935.22
2022-09-12T19:59:57.485Z,97942.53
2022-09-12T20:02:49.133Z,97944.88
2022-09-12T20:05:42.509Z,97951.56
2022-09-12T20:08:32.182Z,97939.34
2022-09-12T20:11:17.513Z,97942.53
2022-09-12T20:14:07.130Z,97949.50
2022-09-12T20:16:56.209Z,97946.28
2022-09-12T20:19:38.474Z,97942.00
2022-09-12T20:22:27.180Z,97948.53
2022-09-12T20:25:09.800Z,97941.91
2022-09-12T20:28:00.352Z,97939.22
2022-09-12T20:30:43.506Z,97937.56
2022-09-12T20:33:32.172Z,97931.19
2022-09-12T20:36:17.497Z,97933.47
2022-09-12T20:39:09.087Z,97929.25
2022-09-12T20:41:51.479Z,97923.38
2022-09-12T20:44:40.134Z,97930.03
2022-09-12T20:47:22.444Z,97928.72
2022-09-12T20:50:11.065Z,97926.41
2022-09-12T20:53:00.144Z,97932.91
2022-09-12T20:55:42.130Z,97935.31
2022-09-12T20:58:43.031Z,97933.16
2022-09-12T21:01:35.168Z,97935.06
2022-09-12T21:04:17.639Z,97931.75
2022-09-12T21:07:06.142Z,97933.28
2022-09-12T21:09:48.652Z,97932.47
2022-09-12T21:12:37.074Z,97938.81
2022-09-12T21:15:26.064Z,97934.25
2022-09-12T21:18:15.228Z,97932.22
2022-09-12T21:21:04.507Z,97931.50
2022-09-12T21:23:53.165Z,97925.91
2022-09-12T21:26:35.476Z,97925.97
2022-09-12T21:29:24.194Z,97920.44
2022-09-12T21:32:09.936Z,97926.78
2022-09-12T21:35:01.078Z,97932.47
2022-09-12T21:37:51.141Z,97933.03
2022-09-12T21:40:33.328Z,97925.09
2022-09-12T21:43:22.079Z,97933.03
2022-09-12T21:46:12.212Z,97927.41
2022-09-12T21:49:01.086Z,97933.66
2022-09-12T21:51:50.133Z,97932.13
2022-09-12T21:54:32.536Z,97934.38
2022-09-12T21:57:21.440Z,97928.22
2022-09-12T22:00:17.183Z,97920.00
2022-09-12T22:03:05.953Z,97928.38
2022-09-12T22:05:49.040Z,97920.28
2022-09-12T22:08:40.070Z,97923.41
2022-09-12T22:11:24.733Z,97926.59
2022-09-12T22:14:13.161Z,97928.13
2022-09-12T22:17:02.163Z,97928.50
2022-09-12T22:19:44.365Z,97929.19
2022-09-12T22:23:05.078Z,97934.28
2022-09-12T22:26:01.163Z,97928.06
2022-09-12T22:28:44.223Z,97923.31
2022-09-12T22:31:34.217Z,97935.38
2022-09-12T22:34:17.000Z,97928.94
2022-09-12T22:37:06.155Z,97933.38
2022-09-12T22:39:48.540Z,97930.63
2022-09-12T22:42:39.141Z,97924.31
2022-09-12T22:45:21.567Z,97924.56
2022-09-12T22:48:10.160Z,97926.66
2022-09-12T22:50:52.374Z,97929.72
2022-09-12T22:53:41.062Z,97921.88
2022-09-12T22:56:23.681Z,97930.78
2022-09-12T22:59:19.103Z,97921.94
2022-09-12T23:02:08.142Z,97930.59
2022-09-12T23:04:57.158Z,97929.22
2022-09-12T23:07:39.356Z,97933.81
2022-09-12T23:10:28.137Z,97930.22
2022-09-12T23:13:11.906Z,97922.06
2022-09-12T23:16:04.221Z,97924.34
2022-09-12T23:18:53.515Z,97926.44
2022-09-12T23:21:38.187Z,97930.59
2022-09-12T23:24:20.455Z,97922.75
2022-09-12T23:27:09.072Z,97929.00
2022-09-12T23:29:57.427Z,97937.28
2022-09-12T23:32:40.255Z,97938.00
2022-09-12T23:35:25.321Z,97938.63
2022-09-12T23:38:14.705Z,97938.81
2022-09-12T23:41:03.449Z,97937.28
2022-09-12T23:43:46.079Z,97935.25
2022-09-12T23:46:34.470Z,97941.66
2022-09-12T23:49:17.150Z,97939.75
2022-09-12T23:52:06.150Z,97955.72
2022-09-12T23:54:48.420Z,97952.25
2022-09-12T23:57:37.163Z,97947.00
